createdAt,value
2023-01-06T00:01:17.302Z,2.33
2023-01-06T00:04:03.363Z,2.13
2023-01-06T00:06:49.095Z,2.95
2023-01-06T00:09:34.717Z,2.10
2023-01-06T00:12:20.007Z,2.60
2023-01-06T00:15:06.004Z,2.60
2023-01-06T00:17:51.389Z,2.65
2023-01-06T00:20:36.927Z,1.75
2023-01-06T00:23:22.227Z,2.40
2023-01-06T00:26:09.654Z,1.73
2023-01-06T00:28:56.502Z,1.90
2023-01-06T00:31:44.751Z,1.42
2023-01-06T00:34:30.201Z,1.40
2023-01-06T00:37:15.642Z,1.58
2023-01-06T00:40:00.838Z,1.50
2023-01-06T00:42:46.470Z,1.63
2023-01-06T00:45:31.863Z,1.83
2023-01-06T00:48:17.751Z,1.50
2023-01-06T00:51:03.101Z,1.45
2023-01-06T00:53:49.647Z,1.45
2023-01-06T00:56:39.665Z,1.58
2023-01-06T00:59:26.827Z,1.27
2023-01-06T01:02:12.561Z,1.30
2023-01-06T01:04:57.909Z,1.30
2023-01-06T01:07:43.490Z,1.60
2023-01-06T01:10:28.863Z,1.40
2023-01-06T01:13:14.162Z,1.50
2023-01-06T01:16:09.664Z,1.90
2023-01-06T01:18:55.018Z,2.30
2023-01-06T01:21:40.518Z,2.25
2023-01-06T01:24:26.055Z,2.75
2023-01-06T01:27:11.584Z,3.20
2023-01-06T01:29:56.975Z,2.97
2023-01-06T01:32:42.514Z,3.20
2023-01-06T01:35:27.873Z,2.80
2023-01-06T01:38:13.394Z,2.80
2023-01-06T01:40:58.891Z,2.85
2023-01-06T01:43:51.055Z,2.90
2023-01-06T01:46:43.325Z,3.10
2023-01-06T01:49:32.205Z,3.13
2023-01-06T01:52:18.413Z,3.25
2023-01-06T01:55:05.907Z,3.17
2023-01-06T01:58:04.428Z,3.10
2023-01-06T02:00:51.463Z,3.38
2023-01-06T02:03:38.636Z,2.80
2023-01-06T02:06:26.220Z,2.88
2023-01-06T02:09:19.860Z,2.50
2023-01-06T02:12:05.996Z,2.90
2023-01-06T02:14:51.289Z,3.35
2023-01-06T02:17:53.350Z,2.92
2023-01-06T02:21:06.408Z,2.78
2023-01-06T02:24:01.173Z,3.60
2023-01-06T02:26:52.438Z,3.78
2023-01-06T02:30:03.238Z,3.50
2023-01-06T02:33:04.454Z,3.30
2023-01-06T02:35:50.659Z,3.00
2023-01-06T02:39:03.834Z,3.33
2023-01-06T02:42:28.214Z,2.95
2023-01-06T02:45:28.639Z,3.05
2023-01-06T02:48:52.238Z,3.38
2023-01-06T02:52:00.517Z,3.00
2023-01-06T02:55:09.870Z,2.67
2023-01-06T02:58:02.231Z,2.60
2023-01-06T03:00:59.168Z,2.10
2023-01-06T03:03:48.218Z,1.88
2023-01-06T03:06:36.519Z,2.20
2023-01-06T03:09:28.091Z,2.00
2023-01-06T03:12:28.710Z,1.60
2023-01-06T03:15:14.242Z,1.95
2023-01-06T03:17:59.762Z,1.90
2023-01-06T03:20:47.358Z,1.65
2023-01-06T03:23:34.103Z,1.90
2023-01-06T03:26:20.220Z,1.40
2023-01-06T03:29:08.817Z,1.17
2023-01-06T03:32:19.024Z,1.33
2023-01-06T03:35:24.760Z,1.65
2023-01-06T03:38:19.805Z,1.70
2023-01-06T03:41:14.243Z,1.38
2023-01-06T03:44:09.954Z,1.40
2023-01-06T03:47:04.213Z,1.25
2023-01-06T03:50:04.517Z,1.40
2023-01-06T03:53:21.636Z,1.30
2023-01-06T03:56:12.593Z,1.33
2023-01-06T03:59:02.832Z,1.05
2023-01-06T04:01:50.152Z,1.08
2023-01-06T04:04:37.641Z,1.10
2023-01-06T04:07:23.150Z,1.35
2023-01-06T04:10:10.898Z,1.25
2023-01-06T04:12:56.150Z,1.30
2023-01-06T04:15:46.166Z,1.20
2023-01-06T04:18:31.611Z,1.00
2023-01-06T04:21:17.351Z,1.40
2023-01-06T04:24:02.719Z,1.08
2023-01-06T04:26:48.108Z,1.15
2023-01-06T04:29:33.545Z,1.27
2023-01-06T04:32:18.835Z,1.48
2023-01-06T04:35:05.096Z,1.52
2023-01-06T04:37:50.688Z,1.33
2023-01-06T04:40:36.216Z,1.20
2023-01-06T04:43:21.934Z,1.58
2023-01-06T04:46:07.543Z,1.40
2023-01-06T04:48:53.140Z,1.05
2023-01-06T04:51:38.638Z,1.20
2023-01-06T04:54:23.989Z,1.13
2023-01-06T04:57:09.564Z,1.48
2023-01-06T04:59:54.953Z,1.40
2023-01-06T05:02:40.529Z,1.60
2023-01-06T05:05:25.826Z,1.30
2023-01-06T05:08:11.346Z,1.40
2023-01-06T05:11:11.542Z,1.08
2023-01-06T05:13:56.995Z,1.30
2023-01-06T05:16:42.568Z,1.30
2023-01-06T05:19:28.001Z,1.50
2023-01-06T05:22:13.656Z,1.00
2023-01-06T05:24:58.960Z,1.48
2023-01-06T05:27:44.297Z,1.10
2023-01-06T05:30:29.914Z,1.10
2023-01-06T05:33:15.277Z,1.20
2023-01-06T05:36:02.210Z,1.10
2023-01-06T05:38:54.719Z,1.38
2023-01-06T05:44:25.489Z,1.60
2023-01-06T05:47:11.031Z,1.50
2023-01-06T05:49:56.483Z,1.60
2023-01-06T05:52:41.933Z,1.88
2023-01-06T05:55:27.484Z,2.00
2023-01-06T05:58:12.978Z,1.67
2023-01-06T06:00:59.253Z,1.80
2023-01-06T06:03:45.107Z,1.70
2023-01-06T06:06:31.328Z,2.10
2023-01-06T06:09:17.069Z,2.00
2023-01-06T06:12:02.622Z,2.30
2023-01-06T06:14:47.867Z,2.55
2023-01-06T06:17:33.113Z,2.42
2023-01-06T06:20:18.653Z,2.40
2023-01-06T06:23:04.334Z,2.28
2023-01-06T06:25:50.423Z,2.03
2023-01-06T06:28:37.540Z,2.13
2023-01-06T06:31:28.702Z,2.08
2023-01-06T06:34:14.086Z,2.28
2023-01-06T06:36:59.416Z,2.10
2023-01-06T06:39:45.227Z,2.10
2023-01-06T06:42:30.828Z,1.95
2023-01-06T06:45:16.549Z,2.08
2023-01-06T06:48:02.097Z,2.03
2023-01-06T06:50:55.622Z,2.10
2023-01-06T06:53:41.285Z,2.10
2023-01-06T06:56:26.605Z,1.80
2023-01-06T06:59:12.100Z,1.90
2023-01-06T07:01:57.734Z,1.60
2023-01-06T07:04:43.112Z,2.03
2023-01-06T07:07:28.305Z,1.95
2023-01-06T07:10:16.081Z,1.70
2023-01-06T07:13:01.371Z,1.70
2023-01-06T07:15:46.847Z,2.03
2023-01-06T07:18:32.476Z,2.00
2023-01-06T07:21:18.158Z,2.33
2023-01-06T07:24:03.875Z,1.80
2023-01-06T07:26:49.325Z,2.15
2023-01-06T07:29:34.721Z,3.55
2023-01-06T07:32:20.265Z,3.30
2023-01-06T07:35:06.076Z,3.42
2023-01-06T07:37:51.465Z,3.42
2023-01-06T07:40:38.020Z,3.92
2023-01-06T07:43:23.454Z,2.58
2023-01-06T07:46:09.473Z,2.30
2023-01-06T07:48:55.032Z,2.13
2023-01-06T07:51:40.425Z,2.28
2023-01-06T07:54:25.862Z,1.55
2023-01-06T07:57:11.270Z,2.70
2023-01-06T07:59:56.877Z,2.65
2023-01-06T08:02:42.369Z,2.00
2023-01-06T08:05:27.766Z,1.88
2023-01-06T08:08:13.195Z,1.90
2023-01-06T08:10:58.724Z,1.95
2023-01-06T08:13:44.126Z,2.05
2023-01-06T08:16:29.652Z,2.35
2023-01-06T08:19:15.222Z,1.92
2023-01-06T08:22:00.465Z,2.30
2023-01-06T08:24:46.101Z,2.40
2023-01-06T08:27:31.560Z,1.58
2023-01-06T08:30:22.020Z,1.98
2023-01-06T08:33:07.272Z,1.60
2023-01-06T08:36:00.206Z,1.23
2023-01-06T08:38:46.405Z,0.95
2023-01-06T08:41:31.988Z,1.20
2023-01-06T08:44:18.321Z,1.52
2023-01-06T08:47:04.708Z,1.13
2023-01-06T08:49:50.192Z,1.42
2023-01-06T08:52:35.755Z,1.35
2023-01-06T08:55:21.093Z,1.10
2023-01-06T08:58:06.813Z,1.85
2023-01-06T09:00:52.037Z,1.33
2023-01-06T09:03:37.475Z,1.25
2023-01-06T09:06:23.289Z,1.30
2023-01-06T09:09:09.478Z,0.98
2023-01-06T09:11:54.917Z,1.27
2023-01-06T09:14:40.135Z,1.27
2023-01-06T09:17:25.618Z,1.15
2023-01-06T09:20:11.165Z,1.30
2023-01-06T09:22:56.535Z,1.00
2023-01-06T09:25:42.159Z,1.50
2023-01-06T09:28:27.737Z,1.27
2023-01-06T09:31:13.521Z,1.08
2023-01-06T09:33:58.760Z,1.10
2023-01-06T09:36:44.499Z,1.10
2023-01-06T09:39:29.859Z,1.48
2023-01-06T09:42:44.267Z,1.20
2023-01-06T09:45:46.659Z,1.17
2023-01-06T09:48:39.442Z,1.17
2023-01-06T09:51:26.235Z,1.25
2023-01-06T09:54:35.786Z,1.20
2023-01-06T09:57:28.961Z,1.60
2023-01-06T10:00:46.342Z,1.10
2023-01-06T10:03:32.488Z,1.25
2023-01-06T10:06:18.290Z,1.40
2023-01-06T10:09:26.558Z,1.40
2023-01-06T10:12:19.728Z,1.20
2023-01-06T10:15:29.831Z,1.20
2023-01-06T10:18:34.896Z,1.15
2023-01-06T10:21:33.730Z,1.17
2023-01-06T10:24:39.055Z,1.40
2023-01-06T10:27:42.309Z,1.08
2023-01-06T10:31:08.521Z,1.20
2023-01-06T10:33:56.999Z,1.27
2023-01-06T10:36:45.961Z,1.20
2023-01-06T10:39:33.674Z,1.10
2023-01-06T10:42:56.183Z,1.20
2023-01-06T10:45:43.616Z,1.10
2023-01-06T10:48:32.378Z,0.82
2023-01-06T10:51:32.836Z,0.98
2023-01-06T10:54:24.828Z,1.25
2023-01-06T10:57:21.794Z,1.00
2023-01-06T11:00:14.927Z,0.90
2023-01-06T11:03:19.549Z,1.35
2023-01-06T11:06:27.698Z,1.33
2023-01-06T11:09:36.234Z,1.10
2023-01-06T11:12:27.251Z,1.48
2023-01-06T11:15:22.140Z,0.98
2023-01-06T11:18:21.408Z,1.20
2023-01-06T11:21:16.680Z,1.13
2023-01-06T11:24:16.139Z,1.42
2023-01-06T11:27:14.323Z,1.20
2023-01-06T11:30:01.257Z,1.27
2023-01-06T11:32:46.861Z,1.20
2023-01-06T11:35:33.988Z,1.30
2023-01-06T11:38:20.940Z,1.00
2023-01-06T11:41:10.162Z,1.20
2023-01-06T11:44:02.293Z,1.50
2023-01-06T11:46:51.995Z,1.05
2023-01-06T11:49:43.201Z,1.20
2023-01-06T11:52:33.421Z,1.20
2023-01-06T11:55:22.334Z,1.17
2023-01-06T11:58:21.323Z,1.00
2023-01-06T12:01:27.388Z,1.23
2023-01-06T12:04:35.137Z,1.30
2023-01-06T12:07:46.609Z,1.05
2023-01-06T12:10:34.699Z,1.40
2023-01-06T12:13:19.984Z,1.08
2023-01-06T12:16:12.781Z,0.90
2023-01-06T12:18:58.813Z,1.30
2023-01-06T12:21:44.324Z,1.30
2023-01-06T12:24:33.280Z,1.20
2023-01-06T12:27:27.613Z,1.10
2023-01-06T12:30:30.933Z,1.08
2023-01-06T12:33:19.425Z,1.08
2023-01-06T12:36:12.241Z,1.10
2023-01-06T12:42:13.873Z,1.10
2023-01-06T12:45:16.393Z,1.02
2023-01-06T12:48:09.324Z,1.43
2023-01-06T12:51:08.736Z,1.38
2023-01-06T12:54:05.404Z,0.88
2023-01-06T12:57:23.759Z,1.00
2023-01-06T13:00:40.149Z,1.05
2023-01-06T13:03:58.988Z,1.15
2023-01-06T13:07:02.576Z,1.00
2023-01-06T13:10:05.173Z,1.20
2023-01-06T13:13:09.314Z,0.95
2023-01-06T13:15:56.422Z,1.23
2023-01-06T13:19:07.211Z,1.05
2023-01-06T13:21:59.034Z,1.15
2023-01-06T13:25:19.747Z,0.95
2023-01-06T13:28:20.263Z,1.13
2023-01-06T13:31:25.961Z,1.33
2023-01-06T13:34:14.281Z,1.08
2023-01-06T13:37:33.498Z,1.08
2023-01-06T13:40:27.000Z,1.25
2023-01-06T13:43:23.859Z,1.08
2023-01-06T13:46:13.809Z,1.23
2023-01-06T13:49:02.933Z,1.02
2023-01-06T13:51:48.586Z,1.10
2023-01-06T13:54:56.935Z,1.02
2023-01-06T13:57:42.478Z,0.90
2023-01-06T14:00:28.888Z,1.25
2023-01-06T14:03:22.016Z,0.93
2023-01-06T14:06:40.075Z,0.70
2023-01-06T14:09:26.803Z,1.30
2023-01-06T14:12:19.716Z,1.35
2023-01-06T14:15:17.601Z,1.05
2023-01-06T14:18:04.055Z,1.30
2023-01-06T14:21:01.459Z,0.80
2023-01-06T14:23:56.164Z,0.98
2023-01-06T14:27:01.270Z,1.13
2023-01-06T14:29:47.540Z,1.13
2023-01-06T14:32:35.711Z,1.00
2023-01-06T14:35:29.394Z,1.42
2023-01-06T14:38:27.012Z,1.00
2023-01-06T14:41:36.433Z,1.00
2023-01-06T14:44:30.957Z,0.90
2023-01-06T14:47:45.826Z,0.90
2023-01-06T14:50:47.943Z,1.00
2023-01-06T14:53:42.811Z,0.90
2023-01-06T14:56:29.897Z,1.17
2023-01-06T14:59:15.787Z,0.95
2023-01-06T15:02:15.747Z,1.00
2023-01-06T15:05:01.693Z,1.50
2023-01-06T15:08:15.030Z,1.33
2023-01-06T15:11:22.870Z,1.17
2023-01-06T15:14:28.287Z,1.10
2023-01-06T15:17:14.651Z,0.93
2023-01-06T15:19:59.969Z,0.88
2023-01-06T15:22:49.216Z,1.10
2023-01-06T15:25:37.686Z,0.90
2023-01-06T15:28:34.164Z,0.98
2023-01-06T15:31:19.798Z,1.00
2023-01-06T15:34:30.064Z,1.20
2023-01-06T15:37:23.495Z,0.90
2023-01-06T15:40:22.631Z,1.02
2023-01-06T15:43:08.355Z,1.02
2023-01-06T15:46:13.355Z,0.70
2023-01-06T15:48:59.052Z,1.05
2023-01-06T15:51:53.932Z,0.70
2023-01-06T15:54:45.829Z,1.10
2023-01-06T15:57:37.764Z,0.85
2023-01-06T16:00:27.055Z,0.90
2023-01-06T16:03:32.390Z,0.95
2023-01-06T16:06:30.552Z,0.77
2023-01-06T16:09:30.529Z,0.70
2023-01-06T16:12:19.643Z,1.05
2023-01-06T16:15:35.152Z,0.90
2023-01-06T16:18:35.963Z,0.70
2023-01-06T16:21:27.950Z,0.70
2023-01-06T16:24:20.671Z,0.70
2023-01-06T16:27:06.720Z,0.80
2023-01-06T16:30:15.174Z,0.80
2023-01-06T16:33:00.946Z,1.00
2023-01-06T16:35:51.885Z,1.15
2023-01-06T16:38:38.719Z,1.20
2023-01-06T16:41:24.137Z,1.40
2023-01-06T16:44:10.178Z,1.15
2023-01-06T16:46:55.991Z,1.10
2023-01-06T16:49:41.378Z,1.17
2023-01-06T16:52:26.932Z,1.17
2023-01-06T16:55:14.122Z,1.35
2023-01-06T16:58:00.474Z,1.23
2023-01-06T17:00:54.239Z,1.30
2023-01-06T17:03:40.174Z,1.27
2023-01-06T17:06:27.323Z,1.10
2023-01-06T17:09:19.107Z,1.27
2023-01-06T17:12:12.586Z,1.15
2023-01-06T17:14:57.613Z,1.70
2023-01-06T17:17:43.151Z,1.80
2023-01-06T17:20:28.809Z,1.60
2023-01-06T17:23:14.073Z,1.63
2023-01-06T17:26:02.406Z,1.50
2023-01-06T17:28:51.340Z,1.48
2023-01-06T17:31:48.982Z,1.42
2023-01-06T17:34:37.136Z,1.50
2023-01-06T17:37:24.657Z,1.42
2023-01-06T17:40:18.918Z,1.80
2023-01-06T17:43:16.913Z,1.73
2023-01-06T17:46:03.349Z,2.15
2023-01-06T17:49:00.225Z,1.67
2023-01-06T17:51:46.470Z,1.63
2023-01-06T17:54:50.282Z,1.95
2023-01-06T17:57:37.509Z,1.73
2023-01-06T18:00:27.423Z,1.70
2023-01-06T18:03:18.791Z,1.80
2023-01-06T18:06:26.572Z,2.17
2023-01-06T18:09:15.833Z,2.10
2023-01-06T18:12:03.480Z,2.40
2023-01-06T18:14:50.191Z,2.25
2023-01-06T18:17:35.774Z,2.50
2023-01-06T18:20:21.842Z,2.80
2023-01-06T18:23:18.876Z,2.65
2023-01-06T18:26:26.103Z,2.50
2023-01-06T18:29:13.869Z,2.60
2023-01-06T18:32:24.167Z,2.75
2023-01-06T18:35:38.385Z,2.70
2023-01-06T18:38:29.703Z,2.40
2023-01-06T18:41:15.007Z,2.67
2023-01-06T18:44:00.405Z,2.63
2023-01-06T18:46:46.285Z,2.70
2023-01-06T18:49:33.699Z,2.97
2023-01-06T18:52:33.638Z,2.85
2023-01-06T18:55:36.810Z,2.83
2023-01-06T18:58:49.643Z,3.35
2023-01-06T19:04:31.467Z,3.33
2023-01-06T19:07:28.557Z,3.63
2023-01-06T19:10:27.839Z,3.78
2023-01-06T19:13:22.318Z,3.85
2023-01-06T19:16:34.556Z,4.13
2023-01-06T19:19:39.733Z,4.00
2023-01-06T19:22:36.151Z,3.83
2023-01-06T19:25:40.410Z,4.10
2023-01-06T19:28:29.939Z,4.45
2023-01-06T19:31:22.267Z,3.97
2023-01-06T19:34:15.275Z,4.10
2023-01-06T19:37:00.452Z,4.85
2023-01-06T19:39:50.228Z,5.10
2023-01-06T19:42:35.966Z,5.40
2023-01-06T19:45:29.516Z,5.53
2023-01-06T19:48:27.993Z,6.75
2023-01-06T19:51:29.948Z,7.40
2023-01-06T19:54:24.984Z,7.97
2023-01-06T19:57:32.007Z,7.30
2023-01-06T20:00:35.849Z,7.80
2023-01-06T20:03:28.895Z,7.68
2023-01-06T20:06:16.314Z,8.35
2023-01-06T20:09:01.364Z,8.00
2023-01-06T20:11:47.754Z,8.20
2023-01-06T20:14:33.036Z,8.98
2023-01-06T20:17:18.340Z,8.80
2023-01-06T20:20:04.767Z,9.55
2023-01-06T20:22:50.070Z,9.98
2023-01-06T20:25:43.354Z,9.40
2023-01-06T20:28:28.998Z,10.55
2023-01-06T20:31:14.484Z,10.57
2023-01-06T20:33:59.900Z,11.05
2023-01-06T20:36:45.321Z,10.90
2023-01-06T20:39:32.891Z,11.90
2023-01-06T20:42:20.942Z,11.35
2023-01-06T20:45:06.695Z,10.93
2023-01-06T20:47:51.853Z,10.85
2023-01-06T20:50:39.159Z,11.68
2023-01-06T20:53:24.245Z,11.88
2023-01-06T20:56:09.666Z,11.52
2023-01-06T20:58:55.119Z,11.27
2023-01-06T21:01:40.854Z,12.45
2023-01-06T21:04:26.091Z,12.23
2023-01-06T21:07:11.766Z,12.40
2023-01-06T21:09:57.059Z,11.88
2023-01-06T21:12:43.043Z,11.48
2023-01-06T21:15:28.633Z,11.70
2023-01-06T21:18:14.014Z,10.70
2023-01-06T21:20:59.677Z,11.10
2023-01-06T21:23:45.158Z,10.20
2023-01-06T21:26:30.581Z,10.23
2023-01-06T21:29:16.133Z,9.68
2023-01-06T21:32:01.460Z,10.23
2023-01-06T21:34:46.990Z,9.65
2023-01-06T21:37:32.346Z,10.77
2023-01-06T21:40:17.805Z,10.18
2023-01-06T21:43:08.874Z,9.63
2023-01-06T21:45:53.981Z,9.75
2023-01-06T21:48:39.202Z,9.50
2023-01-06T21:51:24.801Z,9.77
2023-01-06T21:54:10.189Z,11.13
2023-01-06T21:56:56.042Z,10.45
2023-01-06T21:59:41.266Z,10.95
2023-01-06T22:02:27.150Z,9.95
2023-01-06T22:05:13.277Z,10.60
2023-01-06T22:07:59.405Z,11.50
2023-01-06T22:10:45.012Z,10.70
2023-01-06T22:13:32.530Z,9.02
2023-01-06T22:16:18.050Z,10.35
2023-01-06T22:19:03.729Z,9.90
2023-01-06T22:21:48.945Z,9.68
2023-01-06T22:24:35.594Z,9.93
2023-01-06T22:27:21.856Z,9.20
2023-01-06T22:30:08.449Z,11.02
2023-01-06T22:32:53.783Z,10.65
2023-01-06T22:35:39.524Z,11.05
2023-01-06T22:38:25.196Z,10.52
2023-01-06T22:41:10.621Z,11.25
2023-01-06T22:43:56.080Z,11.20
2023-01-06T22:46:41.572Z,11.13
2023-01-06T22:49:26.953Z,11.45
2023-01-06T22:52:12.563Z,10.98
2023-01-06T22:54:57.928Z,10.63
2023-01-06T22:57:43.345Z,10.18
2023-01-06T23:00:28.749Z,10.00
2023-01-06T23:03:14.205Z,9.13
2023-01-06T23:06:05.516Z,10.50
2023-01-06T23:09:00.111Z,9.97
2023-01-06T23:11:46.054Z,10.25
2023-01-06T23:14:31.824Z,8.98
2023-01-06T23:17:16.895Z,9.70
2023-01-06T23:20:02.642Z,8.60
2023-01-06T23:22:47.918Z,8.38
2023-01-06T23:25:33.462Z,8.40
2023-01-06T23:28:18.958Z,7.93
2023-01-06T23:31:08.009Z,8.57
2023-01-06T23:33:58.667Z,9.02
2023-01-06T23:36:44.917Z,8.82
2023-01-06T23:39:30.259Z,8.18
2023-01-06T23:42:15.897Z,8.68
2023-01-06T23:45:01.062Z,8.02
2023-01-06T23:47:46.277Z,8.10
2023-01-06T23:50:31.710Z,7.90
2023-01-06T23:53:17.320Z,7.85
2023-01-06T23:56:17.114Z,7.38
2023-01-06T23:59:04.520Z,7.88
